McRae, AR (72102)

10:54 AM CST on February 01, 2015 (GMT -0600)
Honey Hill Road | Change Station
CLOSE
Current Station
Personal Weather Station
Location: Searcy, AR
Elevation: 390 ft
Nearby Weather Stations
Active Advisory: Lake Wind Advisory

Elev 390 ft 35.22 °N, 91.80 °W | Updated 35 seconds ago

Rain
Rain
51.1 °F
Feels Like 51.1 °F
N
1.0
Wind Variable Wind from West
Gusts 3.0 mph

Today
High -- | Low -- °F
--% Chance of Precip.
Yesterday
High -- | Low -- °F
Precip. -- in
7:06 AM 5:35 PM
Waxing Gibbous, 95% visible
Pressure 29.80 in
Visibility 2.5 miles
Clouds Mostly Cloudy 800 ft
Overcast 1100 ft
Dew Point 50 °F
Humidity 97%
Rainfall 0.70 in
Snow Depth Not available.
UV 1 out of 12
Pollen 5.20 out of 12
Air Quality Not available.
Flu Activity Not available.
SPECI KSRC 011649Z AUTO 28004KT 2 1/2SM RA BR BKN008 OVC011 11/10 A2980 RMK AO2 CIG 005V010 P0008 TSNO

More Conditions Fewer Conditions

Pressure 29.80 in
Visibility 2.5 miles
Clouds Mostly Cloudy 800 ft
Overcast 1100 ft
Dew Point 50 °F
Humidity 97%
Rainfall 0.70 in
Snow Depth Not available.
UV 1 out of 12
Pollen 5.20 out of 12
Air Quality Not available.
Flu Activity Not available.
SPECI KSRC 011649Z AUTO 28004KT 2 1/2SM RA BR BKN008 OVC011 11/10 A2980 RMK AO2 CIG 005V010 P0008 TSNO

More Conditions Fewer Conditions

10-Day Weather Forecast

Almanac

Astronomy

Feb. 01, 2015 Rise Set
Actual Time
Civil Twilight
Nautical Twilight
Astronomical Twilight
Moon
Length of Visible Light
Length of Day
Tomorrow will be .
, % of the Moon is Illuminated

Today's Extremes

State Highs State Lows

Community

WunderPhotos

Upload Photos

1,792,367 photos uploaded!

WunderBlogs® & News

Nearby

Air Quality

  Air Quality AQ Index Pollutant
Not available.

Snow Depth

Station Depth Elevation

Earthquake Activity

City Distance Mag. Time & Date
Minimum magnitude displayed is 2.5.

Coastal Water Temperatures

Place Temperature

Nearby Weather Stations